createdAt,value
2023-01-10T00:00:27.670Z,4.57
2023-01-10T00:02:54.318Z,4.57
2023-01-10T00:05:23.284Z,4.56
2023-01-10T00:07:50.249Z,4.56
2023-01-10T00:10:17.099Z,4.57
2023-01-10T00:13:02.460Z,4.57
2023-01-10T00:15:35.234Z,4.53
2023-01-10T00:18:02.303Z,4.55
2023-01-10T00:20:29.328Z,4.53
2023-01-10T00:22:59.340Z,4.55
2023-01-10T00:25:26.795Z,4.57
2023-01-10T00:28:26.760Z,4.58
2023-01-10T00:30:55.178Z,4.55
2023-01-10T00:33:24.255Z,4.66
2023-01-10T00:35:51.267Z,4.66
2023-01-10T00:38:20.341Z,4.65
2023-01-10T00:40:50.143Z,4.78
2023-01-10T00:43:35.574Z,4.78
2023-01-10T00:46:06.011Z,4.80
2023-01-10T00:48:32.714Z,4.80
2023-01-10T00:50:59.327Z,4.86
2023-01-10T00:53:26.041Z,4.83
2023-01-10T00:55:54.837Z,4.84
2023-01-10T00:58:22.305Z,5.10
2023-01-10T01:00:49.964Z,5.11
2023-01-10T01:03:18.871Z,5.02
2023-01-10T01:05:46.863Z,5.07
2023-01-10T01:08:15.146Z,5.12
2023-01-10T01:10:42.106Z,5.14
2023-01-10T01:13:14.906Z,5.09
2023-01-10T01:15:42.008Z,5.13
2023-01-10T01:18:11.441Z,5.16
2023-01-10T01:20:42.191Z,5.13
2023-01-10T01:23:08.912Z,5.21
2023-01-10T01:25:35.866Z,5.18
2023-01-10T01:28:10.282Z,5.19
2023-01-10T01:30:36.889Z,5.23
2023-01-10T01:33:03.497Z,5.24
2023-01-10T01:35:30.147Z,5.19
2023-01-10T01:37:56.785Z,5.14
2023-01-10T01:40:23.690Z,5.16
2023-01-10T01:42:55.589Z,5.18
2023-01-10T01:45:22.434Z,5.17
2023-01-10T01:48:01.831Z,5.14
2023-01-10T01:50:31.315Z,5.08
2023-01-10T01:52:59.687Z,5.13
2023-01-10T01:55:27.457Z,5.08
2023-01-10T01:57:55.488Z,5.08
2023-01-10T02:00:22.249Z,5.26
2023-01-10T02:03:02.640Z,5.19
2023-01-10T02:05:31.465Z,5.19
2023-01-10T02:07:59.406Z,5.20
2023-01-10T02:10:32.656Z,5.25
2023-01-10T02:13:03.078Z,5.27
2023-01-10T02:15:30.011Z,5.09
2023-01-10T02:17:57.735Z,5.12
2023-01-10T02:20:24.971Z,5.07
2023-01-10T02:23:03.452Z,5.04
2023-01-10T02:25:52.492Z,5.06
2023-01-10T02:28:51.478Z,5.14
2023-01-10T02:31:26.532Z,5.00
2023-01-10T02:34:10.312Z,5.11
2023-01-10T02:36:55.358Z,5.02
2023-01-10T02:39:44.504Z,5.01
2023-01-10T02:42:38.145Z,5.09
2023-01-10T02:45:09.255Z,5.06
2023-01-10T02:47:40.702Z,4.99
2023-01-10T02:50:41.418Z,5.00
2023-01-10T02:53:19.234Z,4.89
2023-01-10T02:56:00.436Z,4.82
2023-01-10T02:59:01.176Z,4.86
2023-01-10T03:01:46.484Z,4.85
2023-01-10T03:04:37.309Z,4.97
2023-01-10T03:07:22.901Z,5.04
2023-01-10T03:09:56.689Z,5.01
2023-01-10T03:12:36.069Z,5.06
2023-01-10T03:15:04.695Z,4.96
2023-01-10T03:17:31.406Z,5.00
2023-01-10T03:20:01.209Z,4.95
2023-01-10T03:22:29.426Z,5.16
2023-01-10T03:24:58.443Z,5.11
2023-01-10T03:27:37.941Z,5.03
2023-01-10T03:30:26.587Z,5.01
2023-01-10T03:32:55.742Z,5.05
2023-01-10T03:35:25.497Z,5.18
2023-01-10T03:38:23.273Z,5.19
2023-01-10T03:40:56.975Z,5.13
2023-01-10T03:43:50.207Z,5.11
2023-01-10T03:46:37.405Z,5.15
2023-01-10T03:49:05.264Z,5.19
2023-01-10T03:51:32.792Z,5.22
2023-01-10T03:54:01.170Z,5.19
2023-01-10T03:56:28.005Z,5.13
2023-01-10T03:58:54.627Z,5.10
2023-01-10T04:01:21.442Z,5.18
2023-01-10T04:03:48.125Z,5.26
2023-01-10T04:06:14.749Z,5.14
2023-01-10T04:08:41.712Z,5.15
2023-01-10T04:11:08.328Z,5.07
2023-01-10T04:13:35.002Z,5.03
2023-01-10T04:16:01.713Z,5.01
2023-01-10T04:18:28.322Z,4.98
2023-01-10T04:20:54.951Z,4.97
2023-01-10T04:23:21.635Z,4.93
2023-01-10T04:25:48.375Z,4.88
2023-01-10T04:28:15.211Z,4.93
2023-01-10T04:30:41.881Z,4.88
2023-01-10T04:33:10.348Z,4.90
2023-01-10T04:35:36.988Z,4.87
2023-01-10T04:38:03.632Z,4.93
2023-01-10T04:40:31.446Z,4.97
2023-01-10T04:42:58.023Z,5.01
2023-01-10T04:45:24.649Z,4.88
2023-01-10T04:47:51.905Z,4.93
2023-01-10T04:50:18.677Z,4.89
2023-01-10T04:52:45.342Z,4.86
2023-01-10T04:55:12.128Z,4.91
2023-01-10T04:57:38.740Z,4.83
2023-01-10T05:00:06.220Z,4.78
2023-01-10T05:02:32.981Z,4.84
2023-01-10T05:04:59.656Z,4.84
2023-01-10T05:07:26.270Z,4.77
2023-01-10T05:09:52.900Z,4.86
2023-01-10T05:12:19.497Z,4.86
2023-01-10T05:14:46.110Z,4.85
2023-01-10T05:17:12.747Z,4.79
2023-01-10T05:19:39.383Z,4.75
2023-01-10T05:22:05.982Z,4.89
2023-01-10T05:24:32.611Z,4.84
2023-01-10T05:26:59.233Z,4.78
2023-01-10T05:29:25.797Z,4.69
2023-01-10T05:31:52.657Z,4.68
2023-01-10T05:34:19.368Z,4.63
2023-01-10T05:36:46.086Z,4.59
2023-01-10T05:39:14.033Z,4.58
2023-01-10T05:41:40.877Z,4.58
2023-01-10T05:44:08.031Z,4.52
2023-01-10T05:46:34.763Z,4.59
2023-01-10T05:49:01.462Z,4.52
2023-01-10T05:51:28.247Z,4.52
2023-01-10T05:53:54.935Z,4.49
2023-01-10T05:56:21.585Z,4.44
2023-01-10T05:58:51.434Z,4.37
2023-01-10T06:01:20.774Z,4.37
2023-01-10T06:03:47.473Z,4.43
2023-01-10T06:06:14.442Z,4.45
2023-01-10T06:08:41.183Z,4.49
2023-01-10T06:11:09.922Z,4.45
2023-01-10T06:13:36.570Z,4.39
2023-01-10T06:16:03.284Z,4.39
2023-01-10T06:18:30.044Z,4.47
2023-01-10T06:20:56.921Z,4.53
2023-01-10T06:23:24.565Z,4.46
2023-01-10T06:25:51.380Z,4.38
2023-01-10T06:28:18.306Z,4.35
2023-01-10T06:30:45.124Z,4.42
2023-01-10T06:34:29.826Z,4.47
2023-01-10T06:36:56.532Z,4.48
2023-01-10T06:39:23.173Z,4.57
2023-01-10T06:41:49.818Z,4.51
2023-01-10T06:44:16.501Z,4.52
2023-01-10T06:46:43.142Z,4.62
2023-01-10T06:49:09.719Z,4.53
2023-01-10T06:51:36.331Z,4.50
2023-01-10T06:54:02.913Z,4.47
2023-01-10T06:56:29.589Z,4.48
2023-01-10T06:58:56.369Z,4.45
2023-01-10T07:01:23.179Z,4.57
2023-01-10T07:03:49.983Z,4.49
2023-01-10T07:06:16.707Z,4.52
2023-01-10T07:08:45.623Z,4.63
2023-01-10T07:11:13.964Z,4.58
2023-01-10T07:13:40.604Z,4.61
2023-01-10T07:16:12.713Z,4.65
2023-01-10T07:18:40.709Z,4.61
2023-01-10T07:21:07.944Z,4.63
2023-01-10T07:23:34.637Z,4.74
2023-01-10T07:26:05.802Z,4.70
2023-01-10T07:28:34.444Z,4.72
2023-01-10T07:31:02.285Z,4.75
2023-01-10T07:33:29.330Z,4.77
2023-01-10T07:35:55.951Z,4.80
2023-01-10T07:38:25.087Z,4.81
2023-01-10T07:40:51.863Z,4.79
2023-01-10T07:43:18.557Z,4.91
2023-01-10T07:45:47.908Z,4.91
2023-01-10T07:48:14.647Z,4.92
2023-01-10T07:50:41.270Z,4.90
2023-01-10T07:53:08.629Z,5.02
2023-01-10T07:55:39.026Z,4.90
2023-01-10T07:58:08.023Z,4.94
2023-01-10T08:00:35.690Z,4.99
2023-01-10T08:03:02.587Z,5.02
2023-01-10T08:05:29.444Z,4.92
2023-01-10T08:07:59.995Z,4.90
2023-01-10T08:10:27.266Z,4.96
2023-01-10T08:12:53.887Z,5.02
2023-01-10T08:15:20.489Z,4.97
2023-01-10T08:17:47.134Z,4.95
2023-01-10T08:20:13.746Z,4.98
2023-01-10T08:22:40.425Z,5.06
2023-01-10T08:25:07.803Z,5.06
2023-01-10T08:27:34.467Z,5.15
2023-01-10T08:30:01.060Z,5.15
2023-01-10T08:32:27.740Z,5.15
2023-01-10T08:34:54.312Z,5.25
2023-01-10T08:37:20.972Z,5.21
2023-01-10T08:39:47.633Z,5.27
2023-01-10T08:42:14.370Z,5.27
2023-01-10T08:44:41.116Z,5.42
2023-01-10T08:47:08.284Z,5.34
2023-01-10T08:49:36.134Z,5.41
2023-01-10T08:52:03.365Z,5.54
2023-01-10T08:54:30.295Z,5.59
2023-01-10T08:56:57.237Z,5.60
2023-01-10T08:59:24.106Z,5.68
2023-01-10T09:01:50.792Z,5.63
2023-01-10T09:04:17.567Z,5.71
2023-01-10T09:06:44.299Z,5.75
2023-01-10T09:09:10.944Z,5.78
2023-01-10T09:11:37.669Z,5.76
2023-01-10T09:14:04.331Z,5.69
2023-01-10T09:16:31.005Z,5.76
2023-01-10T09:18:57.614Z,5.74
2023-01-10T09:21:24.254Z,5.85
2023-01-10T09:23:50.949Z,6.02
2023-01-10T09:26:17.690Z,5.92
2023-01-10T09:28:44.301Z,5.94
2023-01-10T09:31:12.015Z,5.92
2023-01-10T09:33:46.819Z,6.00
2023-01-10T09:36:15.717Z,5.91
2023-01-10T09:38:42.830Z,6.02
2023-01-10T09:41:28.769Z,6.02
2023-01-10T09:44:04.591Z,6.16
2023-01-10T09:47:21.469Z,6.15
2023-01-10T09:49:52.516Z,6.18
2023-01-10T09:52:24.304Z,6.31
2023-01-10T09:54:52.366Z,6.32
2023-01-10T09:57:20.500Z,6.29
2023-01-10T09:59:51.004Z,6.30
2023-01-10T10:02:20.649Z,6.32
2023-01-10T10:05:01.240Z,6.42
2023-01-10T10:07:27.891Z,6.44
2023-01-10T10:09:54.565Z,6.39
2023-01-10T10:12:51.703Z,6.43
2023-01-10T10:15:34.858Z,6.39
2023-01-10T10:18:23.292Z,6.46
2023-01-10T10:21:15.129Z,6.50
2023-01-10T10:24:13.623Z,6.48
2023-01-10T10:27:00.399Z,6.43
2023-01-10T10:29:59.428Z,6.53
2023-01-10T10:32:56.801Z,6.62
2023-01-10T10:35:28.057Z,6.59
2023-01-10T10:37:56.940Z,6.64
2023-01-10T10:40:25.981Z,6.70
2023-01-10T10:42:54.316Z,6.77
2023-01-10T10:45:41.079Z,6.86
2023-01-10T10:48:27.897Z,6.88
2023-01-10T10:50:59.115Z,6.90
2023-01-10T10:53:25.933Z,6.95
2023-01-10T10:55:53.333Z,6.93
2023-01-10T10:58:20.102Z,6.88
2023-01-10T11:00:47.424Z,6.90
2023-01-10T11:03:38.975Z,7.01
2023-01-10T11:06:07.355Z,7.06
2023-01-10T11:08:38.288Z,6.93
2023-01-10T11:11:14.338Z,6.89
2023-01-10T11:13:48.188Z,6.83
2023-01-10T11:16:27.474Z,6.73
2023-01-10T11:19:26.447Z,6.90
2023-01-10T11:21:57.044Z,6.94
2023-01-10T11:24:31.852Z,6.84
2023-01-10T11:27:00.548Z,6.87
2023-01-10T11:29:42.827Z,6.85
2023-01-10T11:32:15.090Z,6.74
2023-01-10T11:34:43.116Z,6.93
2023-01-10T11:37:24.278Z,6.96
2023-01-10T11:40:15.243Z,7.03
2023-01-10T11:42:42.949Z,7.05
2023-01-10T11:45:21.982Z,6.94
2023-01-10T11:47:49.993Z,6.91
2023-01-10T11:50:22.561Z,6.91
2023-01-10T11:52:49.813Z,6.91
2023-01-10T11:55:39.328Z,6.86
2023-01-10T11:58:09.145Z,6.87
2023-01-10T12:00:45.788Z,6.92
2023-01-10T12:03:27.396Z,6.97
2023-01-10T12:05:58.319Z,6.97
2023-01-10T12:08:26.712Z,6.90
2023-01-10T12:10:59.062Z,7.01
2023-01-10T12:13:28.310Z,6.97
2023-01-10T12:16:15.670Z,6.85
2023-01-10T12:18:42.431Z,6.82
2023-01-10T12:21:13.087Z,6.87
2023-01-10T12:23:41.619Z,6.84
2023-01-10T12:26:13.089Z,6.83
2023-01-10T12:28:42.947Z,6.78
2023-01-10T12:31:14.518Z,6.85
2023-01-10T12:33:46.694Z,6.82
2023-01-10T12:36:45.845Z,6.92
2023-01-10T12:39:23.072Z,6.95
2023-01-10T12:42:23.714Z,6.84
2023-01-10T12:44:54.289Z,6.86
2023-01-10T12:47:39.858Z,6.84
2023-01-10T12:50:14.089Z,6.87
2023-01-10T12:52:46.697Z,6.90
2023-01-10T12:55:17.799Z,6.90
2023-01-10T12:57:51.554Z,6.96
2023-01-10T13:00:32.767Z,7.00
2023-01-10T13:03:05.814Z,6.92
2023-01-10T13:05:32.913Z,6.81
2023-01-10T13:08:03.335Z,6.79
2023-01-10T13:10:31.032Z,6.96
2023-01-10T13:13:35.244Z,6.93
2023-01-10T13:16:25.104Z,6.90
2023-01-10T13:19:05.870Z,7.06
2023-01-10T13:21:33.844Z,7.09
2023-01-10T13:24:19.880Z,6.99
2023-01-10T13:26:53.179Z,6.99
2023-01-10T13:29:22.643Z,6.91
2023-01-10T13:31:51.034Z,6.82
2023-01-10T13:34:19.108Z,6.87
2023-01-10T13:36:56.532Z,6.91
2023-01-10T13:39:28.205Z,7.00
2023-01-10T13:42:16.585Z,6.94
2023-01-10T13:45:04.401Z,6.98
2023-01-10T13:47:40.483Z,6.87
2023-01-10T13:50:22.388Z,6.97
2023-01-10T13:53:09.301Z,7.08
2023-01-10T13:55:38.955Z,6.87
2023-01-10T13:58:47.982Z,6.95
2023-01-10T14:01:55.229Z,6.91
2023-01-10T14:04:30.145Z,6.78
2023-01-10T14:07:01.339Z,6.66
2023-01-10T14:09:32.714Z,6.68
2023-01-10T14:12:00.270Z,6.59
2023-01-10T14:14:39.330Z,6.41
2023-01-10T14:17:13.066Z,6.40
2023-01-10T14:19:40.168Z,6.46
2023-01-10T14:22:07.168Z,6.47
2023-01-10T14:24:45.173Z,6.43
2023-01-10T14:27:16.564Z,6.47
2023-01-10T14:30:00.033Z,6.47
2023-01-10T14:32:38.682Z,6.41
2023-01-10T14:35:07.857Z,6.28
2023-01-10T14:37:42.146Z,6.21
2023-01-10T14:40:15.060Z,6.30
2023-01-10T14:42:42.147Z,6.30
2023-01-10T14:45:23.951Z,6.28
2023-01-10T14:47:50.648Z,6.27
2023-01-10T14:50:26.135Z,6.31
2023-01-10T14:52:52.801Z,6.28
2023-01-10T14:55:21.630Z,6.18
2023-01-10T14:57:59.199Z,6.16
2023-01-10T15:00:34.069Z,6.03
2023-01-10T15:03:03.921Z,5.96
2023-01-10T15:05:34.281Z,5.87
2023-01-10T15:08:25.085Z,5.93
2023-01-10T15:10:54.968Z,5.82
2023-01-10T15:13:24.314Z,5.79
2023-01-10T15:15:51.443Z,5.76
2023-01-10T15:18:37.562Z,5.75
2023-01-10T15:21:04.722Z,5.81
2023-01-10T15:23:35.913Z,5.78
2023-01-10T15:26:05.600Z,5.69
2023-01-10T15:28:36.017Z,5.71
2023-01-10T15:31:08.010Z,5.65
2023-01-10T15:33:35.723Z,5.48
2023-01-10T15:36:07.646Z,5.48
2023-01-10T15:38:36.106Z,5.31
2023-01-10T15:41:06.042Z,5.22
2023-01-10T15:43:34.229Z,5.09
2023-01-10T15:46:02.856Z,5.01
2023-01-10T15:48:39.978Z,4.90
2023-01-10T15:51:35.281Z,4.75
2023-01-10T15:54:03.783Z,4.69
2023-01-10T15:56:39.586Z,4.73
2023-01-10T15:59:21.037Z,4.69
2023-01-10T16:02:16.943Z,4.63
2023-01-10T16:04:44.977Z,4.68
2023-01-10T16:07:25.665Z,4.60
2023-01-10T16:10:00.366Z,4.53
2023-01-10T16:12:52.697Z,4.50
2023-01-10T16:15:22.491Z,4.47
2023-01-10T16:17:49.733Z,4.48
2023-01-10T16:20:22.275Z,4.48
2023-01-10T16:22:49.890Z,4.43
2023-01-10T16:25:22.462Z,4.42
2023-01-10T16:27:49.123Z,4.40
2023-01-10T16:30:24.458Z,4.38
2023-01-10T16:32:51.936Z,4.32
2023-01-10T16:35:19.667Z,4.30
2023-01-10T16:37:47.492Z,4.22
2023-01-10T16:41:00.074Z,4.20
2023-01-10T16:43:29.135Z,4.14
2023-01-10T16:46:03.683Z,4.12
2023-01-10T16:48:31.773Z,4.10
2023-01-10T16:51:10.929Z,4.07
2023-01-10T16:53:37.548Z,4.04
2023-01-10T16:56:04.293Z,4.02
2023-01-10T16:58:30.912Z,3.98
2023-01-10T17:00:59.054Z,3.97
2023-01-10T17:03:26.422Z,3.89
2023-01-10T17:05:53.067Z,3.88
2023-01-10T17:08:22.486Z,3.91
2023-01-10T17:10:52.063Z,3.89
2023-01-10T17:13:24.110Z,3.87
2023-01-10T17:15:51.496Z,3.94
2023-01-10T17:18:18.195Z,3.89
2023-01-10T17:20:45.276Z,3.91
2023-01-10T17:23:12.904Z,3.96
2023-01-10T17:25:39.532Z,3.99
2023-01-10T17:28:06.157Z,4.02
2023-01-10T17:30:32.796Z,4.06
2023-01-10T17:32:59.410Z,4.15
2023-01-10T17:35:32.450Z,4.16
2023-01-10T17:37:59.045Z,4.18
2023-01-10T17:40:26.042Z,4.21
2023-01-10T17:42:52.751Z,4.26
2023-01-10T17:45:20.163Z,4.28
2023-01-10T17:47:46.794Z,4.34
2023-01-10T17:50:13.459Z,4.34
2023-01-10T17:52:42.189Z,4.27
2023-01-10T17:55:09.022Z,4.26
2023-01-10T17:57:38.145Z,4.19
2023-01-10T18:00:06.311Z,4.14
2023-01-10T18:02:33.018Z,4.07
2023-01-10T18:04:59.695Z,4.00
2023-01-10T18:07:26.295Z,3.93
2023-01-10T18:09:54.126Z,3.89
2023-01-10T18:12:20.790Z,3.89
2023-01-10T18:14:47.410Z,3.89
2023-01-10T18:17:14.123Z,3.89
2023-01-10T18:19:40.779Z,3.87
2023-01-10T18:22:27.383Z,3.84
2023-01-10T18:24:54.635Z,3.82
2023-01-10T18:27:22.486Z,3.82
2023-01-10T18:29:52.910Z,3.83
2023-01-10T18:32:21.290Z,3.81
2023-01-10T18:34:47.940Z,3.81
2023-01-10T18:37:15.830Z,3.86
2023-01-10T18:39:45.367Z,3.85
2023-01-10T18:42:12.015Z,3.88
2023-01-10T18:44:38.858Z,3.87
2023-01-10T18:47:06.370Z,3.89
2023-01-10T18:49:33.350Z,4.00
2023-01-10T18:52:00.044Z,3.92
2023-01-10T18:54:28.187Z,3.89
2023-01-10T18:56:58.133Z,3.84
2023-01-10T18:59:24.827Z,3.80
2023-01-10T19:01:51.537Z,3.77
2023-01-10T19:04:18.721Z,3.64
2023-01-10T19:06:46.413Z,3.58
2023-01-10T19:09:13.083Z,3.55
2023-01-10T19:11:39.725Z,3.47
2023-01-10T19:14:06.449Z,3.41
2023-01-10T19:16:33.244Z,3.38
2023-01-10T19:19:02.855Z,3.31
2023-01-10T19:21:31.141Z,3.26
2023-01-10T19:24:01.340Z,3.17
2023-01-10T19:26:28.240Z,3.14
2023-01-10T19:28:54.959Z,3.08
2023-01-10T19:31:24.368Z,3.04
2023-01-10T19:33:51.868Z,3.02
2023-01-10T19:36:20.894Z,2.99
2023-01-10T19:38:48.306Z,2.98
2023-01-10T19:41:17.096Z,2.90
2023-01-10T19:43:43.724Z,2.86
2023-01-10T19:46:11.799Z,2.88
2023-01-10T19:48:39.197Z,2.92
2023-01-10T19:51:11.111Z,2.90
2023-01-10T19:53:40.905Z,2.91
2023-01-10T19:56:09.813Z,2.89
2023-01-10T19:58:37.476Z,2.87
2023-01-10T20:01:08.253Z,2.82
2023-01-10T20:03:34.915Z,2.82
2023-01-10T20:06:05.528Z,2.79
2023-01-10T20:08:32.213Z,2.80
2023-01-10T20:11:05.552Z,2.73
2023-01-10T20:13:34.228Z,2.72
2023-01-10T20:16:01.131Z,2.65
2023-01-10T20:18:27.930Z,2.75
2023-01-10T20:20:54.675Z,2.73
2023-01-10T20:23:22.846Z,2.64
2023-01-10T20:26:06.257Z,2.63
2023-01-10T20:28:34.211Z,2.58
2023-01-10T20:31:00.994Z,2.54
2023-01-10T20:33:27.859Z,2.57
2023-01-10T20:36:01.649Z,2.50
2023-01-10T20:38:28.803Z,2.50
2023-01-10T20:41:06.675Z,2.54
2023-01-10T20:43:33.814Z,2.44
2023-01-10T20:46:08.385Z,2.38
2023-01-10T20:48:35.074Z,2.43
2023-01-10T20:51:02.121Z,2.41
2023-01-10T20:53:29.348Z,2.35
2023-01-10T20:56:01.580Z,2.31
2023-01-10T20:58:28.232Z,2.38
2023-01-10T21:00:54.849Z,2.38
2023-01-10T21:03:21.467Z,2.37
2023-01-10T21:05:52.606Z,2.35
2023-01-10T21:08:19.886Z,2.45
2023-01-10T21:10:47.487Z,2.43
2023-01-10T21:13:14.523Z,2.47
2023-01-10T21:15:43.796Z,2.43
2023-01-10T21:18:11.389Z,2.38
2023-01-10T21:20:45.866Z,2.33
2023-01-10T21:23:14.424Z,2.32
2023-01-10T21:25:41.164Z,2.33
2023-01-10T21:28:10.655Z,2.36
2023-01-10T21:30:37.459Z,2.35
2023-01-10T21:33:04.228Z,2.42
2023-01-10T21:35:31.026Z,2.32
2023-01-10T21:37:57.881Z,2.33
2023-01-10T21:40:25.890Z,2.29
2023-01-10T21:42:52.761Z,2.35
2023-01-10T21:45:21.212Z,2.35
2023-01-10T21:47:51.467Z,2.28
2023-01-10T21:50:20.675Z,2.29
2023-01-10T21:52:48.906Z,2.34
2023-01-10T21:55:16.310Z,2.29
2023-01-10T21:57:42.941Z,2.31
2023-01-10T22:00:10.290Z,2.32
2023-01-10T22:02:37.085Z,2.39
2023-01-10T22:05:03.949Z,2.38
2023-01-10T22:07:31.026Z,2.29
2023-01-10T22:09:57.639Z,2.32
2023-01-10T22:12:25.137Z,2.40
2023-01-10T22:14:51.808Z,2.39
2023-01-10T22:17:18.447Z,2.45
2023-01-10T22:19:45.089Z,2.37
2023-01-10T22:22:12.326Z,2.42
2023-01-10T22:24:40.792Z,2.36
2023-01-10T22:27:08.921Z,2.37
2023-01-10T22:29:35.666Z,2.44
2023-01-10T22:32:06.137Z,2.47
2023-01-10T22:34:33.278Z,2.52
2023-01-10T22:37:00.172Z,2.54
2023-01-10T22:39:26.860Z,2.58
2023-01-10T22:41:55.882Z,2.81
2023-01-10T22:44:26.210Z,2.86
2023-01-10T22:46:54.387Z,2.91
2023-01-10T22:49:21.582Z,2.97
2023-01-10T22:51:48.271Z,2.91
2023-01-10T22:54:20.629Z,2.93
2023-01-10T22:56:50.395Z,3.03
2023-01-10T22:59:17.399Z,3.08
2023-01-10T23:01:44.200Z,2.97
2023-01-10T23:04:10.907Z,2.97
2023-01-10T23:06:37.721Z,3.09
2023-01-10T23:09:04.560Z,3.03
2023-01-10T23:11:31.191Z,3.09
2023-01-10T23:13:57.832Z,3.15
2023-01-10T23:16:33.356Z,3.12
2023-01-10T23:19:00.587Z,3.24
2023-01-10T23:21:32.079Z,3.17
2023-01-10T23:23:59.611Z,3.16
2023-01-10T23:26:26.629Z,3.17
2023-01-10T23:28:53.337Z,3.28
2023-01-10T23:31:22.292Z,3.30
2023-01-10T23:33:49.746Z,3.29
2023-01-10T23:36:17.071Z,3.36
2023-01-10T23:38:47.296Z,3.40
2023-01-10T23:41:13.965Z,3.37
2023-01-10T23:43:41.065Z,3.47
2023-01-10T23:46:08.673Z,3.41
2023-01-10T23:48:35.782Z,3.44
2023-01-10T23:51:02.535Z,3.44
2023-01-10T23:53:29.414Z,3.47
2023-01-10T23:55:56.848Z,3.48
2023-01-10T23:58:23.491Z,3.50
